Impacts METAR Board INFO
IDs:

KLAS - Las Vegas/McCarran I, NV, US

Updated at: 0356 UTC 19 Feb 2018
Potential Impact None Slight Moderate High
Time18/15Z 18/16Z 18/17Z 18/18Z 18/19Z 18/20Z 18/21Z 18/22Z 18/23Z 19/00Z 19/01Z 19/02Z 19/03Z
VIS10 10 10 10 10 10 10 10 10 10 10 8 10
CIG-- -- -- -- -- -- -- -- -- -- -- -- --
CoverFEWFEWFEWFEWFEWFEWFEWFEWFEWFEWFEWFEWFEW
FltCatVFRVFRVFRVFRVFRVFRVFRVFRVFRVFRVFRVFRVFR
WX--------------------------
WDir280180170210180190190210220200200200210
WSpd3 6 11 11 14 15 16 17 17 15 15 17 17
WGst-- -- 17 23 21 25 24 24 26 33 27 26 36
Raw hourly METARs
KLAS 181456Z 28003KT 10SM FEW250 08/M06 A2983 RMK AO2 SLP096 T00781056 58015
KLAS 181556Z 18006KT 10SM FEW250 11/M05 A2983 RMK AO2 SLP095 T01111050
KLAS 181656Z 17011G17KT 10SM FEW250 17/M06 A2982 RMK AO2 WSHFT 1558 SLP087 T01671061
KLAS 181756Z 21011G23KT 10SM FEW250 18/M06 A2979 RMK AO2 SLP078 T01831061 10183 20072 58013
KLAS 181856Z 18014G21KT 10SM FEW250 19/M06 A2976 RMK AO2 PK WND 19026/1810 SLP069 T01941061
KLAS 181956Z 19015G25KT 10SM FEW250 20/M06 A2973 RMK AO2 SLP056 T02001061
KLAS 182056Z 19016G24KT 10SM FEW250 20/M06 A2968 RMK AO2 PK WND 22026/2000 SLP039 T02001056 58036
KLAS 182156Z 21017G24KT 10SM FEW200 FEW250 21/M04 A2965 RMK AO2 PK WND 21031/2143 SLP029 T02111044
KLAS 182256Z 22017G26KT 10SM FEW200 FEW250 22/M04 A2960 RMK AO2 PK WND 21031/2212 SLP010 T02221044
KLAS 182356Z 20015G33KT 10SM FEW200 FEW250 22/M05 A2956 RMK AO2 PK WND 19033/2348 SLP999 T02171050 10228 20183 58037
KLAS 190056Z 20015G27KT 10SM FEW200 FEW250 20/M06 A2956 RMK AO2 PK WND 21027/0050 SLP000 T02001056
KLAS 190156Z 20017G26KT 8SM FEW200 18/M04 A2953 RMK AO2 PK WND 19033/0118 SLP990 VCBLDU T01831044
KLAS 190256Z 21017G36KT 10SM FEW200 18/M04 A2951 RMK AO2 PK WND 19037/0226 SLP983 VCBLDU T01781044 58017